sensor_id;sensor_type;location;lat;lon;timestamp;P1;durP1;ratioP1;P2;durP2;ratioP2
52202;SDS011;38173;52.850;6.970;2024-03-07T00:00:47;3.30;;;1.17;;
52202;SDS011;38173;52.850;6.970;2024-03-07T00:03:13;1.25;;;0.60;;
52202;SDS011;38173;52.850;6.970;2024-03-07T00:05:39;2.05;;;0.63;;
52202;SDS011;38173;52.850;6.970;2024-03-07T00:08:05;3.78;;;1.13;;
52202;SDS011;38173;52.850;6.970;2024-03-07T00:10:31;1.77;;;0.80;;
52202;SDS011;38173;52.850;6.970;2024-03-07T00:12:57;3.20;;;0.90;;
52202;SDS011;38173;52.850;6.970;2024-03-07T00:15:22;1.70;;;0.88;;
52202;SDS011;38173;52.850;6.970;2024-03-07T00:17:48;1.45;;;0.65;;
52202;SDS011;38173;52.850;6.970;2024-03-07T00:20:14;2.10;;;1.00;;
52202;SDS011;38173;52.850;6.970;2024-03-07T00:22:40;2.35;;;0.88;;
52202;SDS011;38173;52.850;6.970;2024-03-07T00:25:07;2.83;;;0.82;;
52202;SDS011;38173;52.850;6.970;2024-03-07T00:27:34;1.52;;;0.88;;
52202;SDS011;38173;52.850;6.970;2024-03-07T00:30:01;2.75;;;1.10;;
52202;SDS011;38173;52.850;6.970;2024-03-07T00:32:28;2.67;;;0.80;;
52202;SDS011;38173;52.850;6.970;2024-03-07T00:34:55;4.22;;;1.30;;
52202;SDS011;38173;52.850;6.970;2024-03-07T00:37:24;1.80;;;0.82;;
52202;SDS011;38173;52.850;6.970;2024-03-07T00:39:52;2.88;;;0.90;;
52202;SDS011;38173;52.850;6.970;2024-03-07T00:42:18;2.63;;;1.00;;
52202;SDS011;38173;52.850;6.970;2024-03-07T00:44:43;2.50;;;0.70;;
52202;SDS011;38173;52.850;6.970;2024-03-07T00:47:10;3.72;;;1.20;;
52202;SDS011;38173;52.850;6.970;2024-03-07T00:49:36;1.58;;;0.77;;
52202;SDS011;38173;52.850;6.970;2024-03-07T00:52:02;2.22;;;0.95;;
52202;SDS011;38173;52.850;6.970;2024-03-07T00:54:27;2.05;;;0.90;;
52202;SDS011;38173;52.850;6.970;2024-03-07T00:56:53;2.63;;;1.05;;
52202;SDS011;38173;52.850;6.970;2024-03-07T00:59:21;1.80;;;0.93;;
52202;SDS011;38173;52.850;6.970;2024-03-07T01:01:47;2.05;;;0.82;;
52202;SDS011;38173;52.850;6.970;2024-03-07T01:04:14;1.75;;;0.60;;
52202;SDS011;38173;52.850;6.970;2024-03-07T01:06:40;1.25;;;0.57;;
52202;SDS011;38173;52.850;6.970;2024-03-07T01:09:06;1.35;;;0.60;;
52202;SDS011;38173;52.850;6.970;2024-03-07T01:11:39;0.40;;;0.32;;
52202;SDS011;38173;52.850;6.970;2024-03-07T01:14:06;0.47;;;0.20;;
52202;SDS011;38173;52.850;6.970;2024-03-07T01:16:31;2.70;;;0.75;;
52202;SDS011;38173;52.850;6.970;2024-03-07T01:18:57;0.65;;;0.43;;
52202;SDS011;38173;52.850;6.970;2024-03-07T01:21:23;0.63;;;0.35;;
52202;SDS011;38173;52.850;6.970;2024-03-07T01:23:49;0.10;;;0.10;;
52202;SDS011;38173;52.850;6.970;2024-03-07T01:26:14;0.70;;;0.30;;
52202;SDS011;38173;52.850;6.970;2024-03-07T01:28:40;0.77;;;0.32;;
52202;SDS011;38173;52.850;6.970;2024-03-07T01:31:06;0.25;;;0.25;;
52202;SDS011;38173;52.850;6.970;2024-03-07T01:33:33;0.50;;;0.32;;
52202;SDS011;38173;52.850;6.970;2024-03-07T01:35:58;0.20;;;0.20;;
52202;SDS011;38173;52.850;6.970;2024-03-07T01:38:24;0.20;;;0.20;;
52202;SDS011;38173;52.850;6.970;2024-03-07T01:40:50;0.10;;;0.10;;
52202;SDS011;38173;52.850;6.970;2024-03-07T01:43:16;0.10;;;0.10;;
52202;SDS011;38173;52.850;6.970;2024-03-07T01:45:42;0.68;;;0.30;;
52202;SDS011;38173;52.850;6.970;2024-03-07T01:48:10;0.10;;;0.10;;
52202;SDS011;38173;52.850;6.970;2024-03-07T01:50:41;0.75;;;0.28;;
52202;SDS011;38173;52.850;6.970;2024-03-07T01:53:07;0.17;;;0.17;;
52202;SDS011;38173;52.850;6.970;2024-03-07T01:55:35;0.95;;;0.40;;
52202;SDS011;38173;52.850;6.970;2024-03-07T01:58:02;0.40;;;0.28;;
52202;SDS011;38173;52.850;6.970;2024-03-07T02:00:29;0.30;;;0.17;;
52202;SDS011;38173;52.850;6.970;2024-03-07T02:02:56;0.30;;;0.30;;
52202;SDS011;38173;52.850;6.970;2024-03-07T02:05:22;0.30;;;0.22;;
52202;SDS011;38173;52.850;6.970;2024-03-07T02:07:49;0.10;;;0.10;;
52202;SDS011;38173;52.850;6.970;2024-03-07T02:10:15;0.20;;;0.10;;
52202;SDS011;38173;52.850;6.970;2024-03-07T02:12:42;0.47;;;0.30;;
52202;SDS011;38173;52.850;6.970;2024-03-07T02:15:08;0.45;;;0.30;;
52202;SDS011;38173;52.850;6.970;2024-03-07T02:17:34;0.20;;;0.20;;
52202;SDS011;38173;52.850;6.970;2024-03-07T02:20:02;0.20;;;0.20;;
52202;SDS011;38173;52.850;6.970;2024-03-07T02:22:29;0.20;;;0.20;;
52202;SDS011;38173;52.850;6.970;2024-03-07T02:24:55;0.55;;;0.30;;
52202;SDS011;38173;52.850;6.970;2024-03-07T02:27:23;0.20;;;0.20;;
52202;SDS011;38173;52.850;6.970;2024-03-07T02:29:48;0.38;;;0.22;;
52202;SDS011;38173;52.850;6.970;2024-03-07T02:32:16;0.40;;;0.28;;
52202;SDS011;38173;52.850;6.970;2024-03-07T02:34:42;0.10;;;0.10;;
52202;SDS011;38173;52.850;6.970;2024-03-07T02:37:08;0.20;;;0.20;;
52202;SDS011;38173;52.850;6.970;2024-03-07T02:39:35;0.75;;;0.40;;
52202;SDS011;38173;52.850;6.970;2024-03-07T02:42:02;0.25;;;0.10;;
52202;SDS011;38173;52.850;6.970;2024-03-07T02:44:27;0.43;;;0.20;;
52202;SDS011;38173;52.850;6.970;2024-03-07T02:46:53;0.17;;;0.17;;
52202;SDS011;38173;52.850;6.970;2024-03-07T02:49:20;0.52;;;0.25;;
52202;SDS011;38173;52.850;6.970;2024-03-07T02:51:46;0.10;;;0.10;;
52202;SDS011;38173;52.850;6.970;2024-03-07T02:54:12;0.20;;;0.20;;
52202;SDS011;38173;52.850;6.970;2024-03-07T02:56:38;0.20;;;0.20;;
52202;SDS011;38173;52.850;6.970;2024-03-07T02:59:04;0.10;;;0.10;;
52202;SDS011;38173;52.850;6.970;2024-03-07T03:01:29;0.40;;;0.30;;
52202;SDS011;38173;52.850;6.970;2024-03-07T03:03:55;0.10;;;0.10;;
52202;SDS011;38173;52.850;6.970;2024-03-07T03:06:21;0.47;;;0.30;;
52202;SDS011;38173;52.850;6.970;2024-03-07T03:08:47;0.28;;;0.28;;
52202;SDS011;38173;52.850;6.970;2024-03-07T03:11:13;0.35;;;0.30;;
52202;SDS011;38173;52.850;6.970;2024-03-07T03:13:42;0.70;;;0.30;;
52202;SDS011;38173;52.850;6.970;2024-03-07T03:16:08;0.20;;;0.20;;
52202;SDS011;38173;52.850;6.970;2024-03-07T03:18:35;0.45;;;0.30;;
52202;SDS011;38173;52.850;6.970;2024-03-07T03:21:01;0.30;;;0.30;;
52202;SDS011;38173;52.850;6.970;2024-03-07T03:23:27;0.20;;;0.20;;
52202;SDS011;38173;52.850;6.970;2024-03-07T03:25:53;0.20;;;0.20;;
52202;SDS011;38173;52.850;6.970;2024-03-07T03:28:20;0.30;;;0.10;;
52202;SDS011;38173;52.850;6.970;2024-03-07T03:30:46;0.10;;;0.10;;
52202;SDS011;38173;52.850;6.970;2024-03-07T03:33:12;0.20;;;0.20;;
52202;SDS011;38173;52.850;6.970;2024-03-07T03:35:38;0.20;;;0.20;;
52202;SDS011;38173;52.850;6.970;2024-03-07T03:38:05;0.20;;;0.20;;
52202;SDS011;38173;52.850;6.970;2024-03-07T03:40:31;0.30;;;0.25;;
52202;SDS011;38173;52.850;6.970;2024-03-07T03:42:58;0.20;;;0.20;;
52202;SDS011;38173;52.850;6.970;2024-03-07T03:45:24;1.15;;;0.32;;
52202;SDS011;38173;52.850;6.970;2024-03-07T03:47:50;0.50;;;0.35;;
52202;SDS011;38173;52.850;6.970;2024-03-07T03:50:16;0.43;;;0.20;;
52202;SDS011;38173;52.850;6.970;2024-03-07T03:52:44;0.20;;;0.20;;
52202;SDS011;38173;52.850;6.970;2024-03-07T03:55:10;0.20;;;0.20;;
52202;SDS011;38173;52.850;6.970;2024-03-07T03:57:40;0.82;;;0.30;;
52202;SDS011;38173;52.850;6.970;2024-03-07T04:00:07;0.20;;;0.20;;
52202;SDS011;38173;52.850;6.970;2024-03-07T04:02:43;0.20;;;0.20;;
52202;SDS011;38173;52.850;6.970;2024-03-07T04:05:13;0.15;;;0.15;;
52202;SDS011;38173;52.850;6.970;2024-03-07T04:07:39;1.20;;;0.50;;
52202;SDS011;38173;52.850;6.970;2024-03-07T04:10:07;0.20;;;0.20;;
52202;SDS011;38173;52.850;6.970;2024-03-07T04:12:34;0.55;;;0.30;;
52202;SDS011;38173;52.850;6.970;2024-03-07T04:17:32;0.20;;;0.20;;
52202;SDS011;38173;52.850;6.970;2024-03-07T04:19:59;0.95;;;0.40;;
52202;SDS011;38173;52.850;6.970;2024-03-07T04:22:31;0.63;;;0.35;;
52202;SDS011;38173;52.850;6.970;2024-03-07T04:24:58;0.30;;;0.30;;
52202;SDS011;38173;52.850;6.970;2024-03-07T04:27:24;0.20;;;0.20;;
52202;SDS011;38173;52.850;6.970;2024-03-07T04:29:51;0.13;;;0.13;;
52202;SDS011;38173;52.850;6.970;2024-03-07T04:32:17;0.57;;;0.30;;
52202;SDS011;38173;52.850;6.970;2024-03-07T04:34:43;0.77;;;0.38;;
52202;SDS011;38173;52.850;6.970;2024-03-07T04:37:09;0.95;;;0.40;;
52202;SDS011;38173;52.850;6.970;2024-03-07T04:39:35;0.10;;;0.10;;
52202;SDS011;38173;52.850;6.970;2024-03-07T04:42:04;0.20;;;0.20;;
52202;SDS011;38173;52.850;6.970;2024-03-07T04:44:31;0.60;;;0.32;;
52202;SDS011;38173;52.850;6.970;2024-03-07T04:46:58;0.55;;;0.25;;
52202;SDS011;38173;52.850;6.970;2024-03-07T04:49:26;0.90;;;0.30;;
52202;SDS011;38173;52.850;6.970;2024-03-07T04:51:54;0.20;;;0.20;;
52202;SDS011;38173;52.850;6.970;2024-03-07T04:54:21;1.40;;;0.28;;
52202;SDS011;38173;52.850;6.970;2024-03-07T04:56:48;0.55;;;0.28;;
52202;SDS011;38173;52.850;6.970;2024-03-07T04:59:15;0.10;;;0.10;;
52202;SDS011;38173;52.850;6.970;2024-03-07T05:01:45;0.82;;;0.28;;
52202;SDS011;38173;52.850;6.970;2024-03-07T05:04:12;0.30;;;0.30;;
52202;SDS011;38173;52.850;6.970;2024-03-07T05:06:39;0.68;;;0.35;;
52202;SDS011;38173;52.850;6.970;2024-03-07T05:09:05;0.20;;;0.20;;
52202;SDS011;38173;52.850;6.970;2024-03-07T05:11:32;0.43;;;0.30;;
52202;SDS011;38173;52.850;6.970;2024-03-07T05:13:59;0.75;;;0.30;;
52202;SDS011;38173;52.850;6.970;2024-03-07T05:16:25;0.20;;;0.20;;
52202;SDS011;38173;52.850;6.970;2024-03-07T05:18:52;0.20;;;0.20;;
52202;SDS011;38173;52.850;6.970;2024-03-07T05:21:18;0.20;;;0.20;;
52202;SDS011;38173;52.850;6.970;2024-03-07T05:24:05;0.40;;;0.30;;
52202;SDS011;38173;52.850;6.970;2024-03-07T05:26:31;0.20;;;0.20;;
52202;SDS011;38173;52.850;6.970;2024-03-07T05:29:04;0.20;;;0.20;;
52202;SDS011;38173;52.850;6.970;2024-03-07T05:31:32;0.20;;;0.15;;
52202;SDS011;38173;52.850;6.970;2024-03-07T05:34:02;0.57;;;0.35;;
52202;SDS011;38173;52.850;6.970;2024-03-07T05:36:30;0.43;;;0.30;;
52202;SDS011;38173;52.850;6.970;2024-03-07T05:38:57;0.10;;;0.10;;
52202;SDS011;38173;52.850;6.970;2024-03-07T05:41:24;0.45;;;0.22;;
52202;SDS011;38173;52.850;6.970;2024-03-07T05:43:56;0.20;;;0.20;;
52202;SDS011;38173;52.850;6.970;2024-03-07T05:46:22;0.10;;;0.10;;
52202;SDS011;38173;52.850;6.970;2024-03-07T05:48:48;0.65;;;0.38;;
52202;SDS011;38173;52.850;6.970;2024-03-07T05:51:17;0.32;;;0.20;;
52202;SDS011;38173;52.850;6.970;2024-03-07T05:53:43;0.10;;;0.10;;
52202;SDS011;38173;52.850;6.970;2024-03-07T05:56:09;0.10;;;0.10;;
52202;SDS011;38173;52.850;6.970;2024-03-07T05:58:39;0.10;;;0.10;;
52202;SDS011;38173;52.850;6.970;2024-03-07T06:01:08;0.10;;;0.10;;
52202;SDS011;38173;52.850;6.970;2024-03-07T06:03:34;0.10;;;0.10;;
52202;SDS011;38173;52.850;6.970;2024-03-07T06:06:00;0.10;;;0.10;;
52202;SDS011;38173;52.850;6.970;2024-03-07T06:08:26;0.13;;;0.13;;
52202;SDS011;38173;52.850;6.970;2024-03-07T06:10:52;0.20;;;0.20;;
52202;SDS011;38173;52.850;6.970;2024-03-07T06:13:18;0.70;;;0.38;;
52202;SDS011;38173;52.850;6.970;2024-03-07T06:15:44;0.10;;;0.10;;
52202;SDS011;38173;52.850;6.970;2024-03-07T06:18:11;0.22;;;0.22;;
52202;SDS011;38173;52.850;6.970;2024-03-07T06:20:39;0.20;;;0.20;;
52202;SDS011;38173;52.850;6.970;2024-03-07T06:23:09;0.20;;;0.20;;
52202;SDS011;38173;52.850;6.970;2024-03-07T06:25:37;0.40;;;0.20;;
52202;SDS011;38173;52.850;6.970;2024-03-07T06:28:13;0.10;;;0.10;;
52202;SDS011;38173;52.850;6.970;2024-03-07T06:30:42;0.55;;;0.30;;
52202;SDS011;38173;52.850;6.970;2024-03-07T06:33:10;0.20;;;0.20;;
52202;SDS011;38173;52.850;6.970;2024-03-07T06:35:36;0.10;;;0.10;;
52202;SDS011;38173;52.850;6.970;2024-03-07T06:38:07;0.50;;;0.30;;
52202;SDS011;38173;52.850;6.970;2024-03-07T06:40:40;0.15;;;0.15;;
52202;SDS011;38173;52.850;6.970;2024-03-07T06:45:35;0.15;;;0.15;;
52202;SDS011;38173;52.850;6.970;2024-03-07T06:48:05;0.40;;;0.30;;
52202;SDS011;38173;52.850;6.970;2024-03-07T06:50:34;0.22;;;0.22;;
52202;SDS011;38173;52.850;6.970;2024-03-07T06:53:00;0.57;;;0.40;;
52202;SDS011;38173;52.850;6.970;2024-03-07T06:55:26;0.75;;;0.40;;
52202;SDS011;38173;52.850;6.970;2024-03-07T06:57:53;0.20;;;0.20;;
52202;SDS011;38173;52.850;6.970;2024-03-07T07:00:19;0.20;;;0.20;;
52202;SDS011;38173;52.850;6.970;2024-03-07T07:02:46;0.20;;;0.20;;
52202;SDS011;38173;52.850;6.970;2024-03-07T07:05:13;0.45;;;0.32;;
52202;SDS011;38173;52.850;6.970;2024-03-07T07:07:47;0.30;;;0.25;;
52202;SDS011;38173;52.850;6.970;2024-03-07T07:10:13;0.20;;;0.20;;
52202;SDS011;38173;52.850;6.970;2024-03-07T07:12:48;0.20;;;0.20;;
52202;SDS011;38173;52.850;6.970;2024-03-07T07:15:15;0.63;;;0.40;;
52202;SDS011;38173;52.850;6.970;2024-03-07T07:17:45;0.73;;;0.38;;
52202;SDS011;38173;52.850;6.970;2024-03-07T07:20:12;0.43;;;0.30;;
52202;SDS011;38173;52.850;6.970;2024-03-07T07:22:42;0.28;;;0.25;;
52202;SDS011;38173;52.850;6.970;2024-03-07T07:25:09;1.08;;;0.43;;
52202;SDS011;38173;52.850;6.970;2024-03-07T07:27:47;0.30;;;0.30;;
52202;SDS011;38173;52.850;6.970;2024-03-07T07:30:15;0.20;;;0.20;;
52202;SDS011;38173;52.850;6.970;2024-03-07T07:32:42;0.57;;;0.32;;
52202;SDS011;38173;52.850;6.970;2024-03-07T07:35:08;0.20;;;0.20;;
52202;SDS011;38173;52.850;6.970;2024-03-07T07:37:37;1.13;;;0.47;;
52202;SDS011;38173;52.850;6.970;2024-03-07T07:40:11;1.75;;;0.50;;
52202;SDS011;38173;52.850;6.970;2024-03-07T07:42:42;0.20;;;0.20;;
52202;SDS011;38173;52.850;6.970;2024-03-07T07:45:09;1.95;;;0.70;;
52202;SDS011;38173;52.850;6.970;2024-03-07T07:50:15;1.42;;;0.68;;
52202;SDS011;38173;52.850;6.970;2024-03-07T07:52:52;1.35;;;0.60;;
52202;SDS011;38173;52.850;6.970;2024-03-07T07:55:19;1.40;;;0.73;;
52202;SDS011;38173;52.850;6.970;2024-03-07T07:57:47;2.20;;;0.93;;
52202;SDS011;38173;52.850;6.970;2024-03-07T08:00:14;0.68;;;0.47;;
52202;SDS011;38173;52.850;6.970;2024-03-07T08:02:52;1.23;;;0.57;;
52202;SDS011;38173;52.850;6.970;2024-03-07T08:05:21;0.32;;;0.32;;
52202;SDS011;38173;52.850;6.970;2024-03-07T08:07:58;0.82;;;0.60;;
52202;SDS011;38173;52.850;6.970;2024-03-07T08:10:31;1.08;;;0.60;;
52202;SDS011;38173;52.850;6.970;2024-03-07T08:12:58;0.73;;;0.40;;
52202;SDS011;38173;52.850;6.970;2024-03-07T08:15:25;2.75;;;0.95;;
52202;SDS011;38173;52.850;6.970;2024-03-07T08:17:56;2.30;;;0.90;;
52202;SDS011;38173;52.850;6.970;2024-03-07T08:20:22;2.30;;;0.95;;
52202;SDS011;38173;52.850;6.970;2024-03-07T08:22:50;2.67;;;1.00;;
52202;SDS011;38173;52.850;6.970;2024-03-07T08:25:18;1.67;;;0.80;;
52202;SDS011;38173;52.850;6.970;2024-03-07T08:30:15;0.88;;;0.63;;
52202;SDS011;38173;52.850;6.970;2024-03-07T08:32:41;3.25;;;1.27;;
52202;SDS011;38173;52.850;6.970;2024-03-07T08:35:08;3.80;;;1.80;;
52202;SDS011;38173;52.850;6.970;2024-03-07T08:37:36;7.30;;;2.28;;
52202;SDS011;38173;52.850;6.970;2024-03-07T08:40:03;4.20;;;1.55;;
52202;SDS011;38173;52.850;6.970;2024-03-07T08:42:33;2.72;;;1.17;;
52202;SDS011;38173;52.850;6.970;2024-03-07T08:45:00;1.42;;;0.88;;
52202;SDS011;38173;52.850;6.970;2024-03-07T08:47:38;5.13;;;2.08;;
52202;SDS011;38173;52.850;6.970;2024-03-07T08:50:04;4.38;;;1.85;;
52202;SDS011;38173;52.850;6.970;2024-03-07T08:52:34;4.32;;;1.70;;
52202;SDS011;38173;52.850;6.970;2024-03-07T08:55:07;5.22;;;1.77;;
52202;SDS011;38173;52.850;6.970;2024-03-07T08:57:40;4.72;;;1.92;;
52202;SDS011;38173;52.850;6.970;2024-03-07T09:00:07;5.22;;;2.13;;
52202;SDS011;38173;52.850;6.970;2024-03-07T09:02:35;4.57;;;1.73;;
52202;SDS011;38173;52.850;6.970;2024-03-07T09:05:01;2.40;;;0.88;;
52202;SDS011;38173;52.850;6.970;2024-03-07T09:07:27;4.90;;;1.55;;
52202;SDS011;38173;52.850;6.970;2024-03-07T09:09:54;3.80;;;1.30;;
52202;SDS011;38173;52.850;6.970;2024-03-07T09:12:20;3.15;;;1.20;;
52202;SDS011;38173;52.850;6.970;2024-03-07T09:14:46;2.42;;;1.13;;
52202;SDS011;38173;52.850;6.970;2024-03-07T09:17:12;2.17;;;1.13;;
52202;SDS011;38173;52.850;6.970;2024-03-07T09:19:38;2.45;;;1.08;;
52202;SDS011;38173;52.850;6.970;2024-03-07T09:22:04;1.45;;;0.55;;
52202;SDS011;38173;52.850;6.970;2024-03-07T09:24:33;0.93;;;0.45;;
52202;SDS011;38173;52.850;6.970;2024-03-07T09:26:59;1.70;;;0.73;;
52202;SDS011;38173;52.850;6.970;2024-03-07T09:29:32;1.35;;;0.70;;
52202;SDS011;38173;52.850;6.970;2024-03-07T09:31:57;0.30;;;0.30;;
52202;SDS011;38173;52.850;6.970;2024-03-07T09:34:23;1.05;;;0.60;;
52202;SDS011;38173;52.850;6.970;2024-03-07T09:36:52;0.75;;;0.50;;
52202;SDS011;38173;52.850;6.970;2024-03-07T09:39:19;0.20;;;0.20;;
52202;SDS011;38173;52.850;6.970;2024-03-07T09:41:45;1.52;;;0.68;;
52202;SDS011;38173;52.850;6.970;2024-03-07T09:44:17;0.90;;;0.35;;
52202;SDS011;38173;52.850;6.970;2024-03-07T09:46:48;0.90;;;0.50;;
52202;SDS011;38173;52.850;6.970;2024-03-07T09:49:16;0.68;;;0.43;;
52202;SDS011;38173;52.850;6.970;2024-03-07T09:51:43;1.75;;;0.70;;
52202;SDS011;38173;52.850;6.970;2024-03-07T09:54:10;0.50;;;0.32;;
52202;SDS011;38173;52.850;6.970;2024-03-07T09:56:36;1.40;;;0.75;;
52202;SDS011;38173;52.850;6.970;2024-03-07T09:59:03;3.08;;;1.02;;
52202;SDS011;38173;52.850;6.970;2024-03-07T10:01:32;1.55;;;0.65;;
52202;SDS011;38173;52.850;6.970;2024-03-07T10:04:00;0.80;;;0.43;;
52202;SDS011;38173;52.850;6.970;2024-03-07T10:06:35;1.50;;;0.68;;
52202;SDS011;38173;52.850;6.970;2024-03-07T10:09:01;1.75;;;0.70;;
52202;SDS011;38173;52.850;6.970;2024-03-07T10:11:29;0.98;;;0.40;;
52202;SDS011;38173;52.850;6.970;2024-03-07T10:13:54;0.85;;;0.40;;
52202;SDS011;38173;52.850;6.970;2024-03-07T10:16:20;0.45;;;0.30;;
52202;SDS011;38173;52.850;6.970;2024-03-07T10:18:46;0.90;;;0.47;;
52202;SDS011;38173;52.850;6.970;2024-03-07T10:21:18;0.85;;;0.38;;
52202;SDS011;38173;52.850;6.970;2024-03-07T10:23:45;1.35;;;0.80;;
52202;SDS011;38173;52.850;6.970;2024-03-07T10:26:11;1.83;;;0.85;;
52202;SDS011;38173;52.850;6.970;2024-03-07T10:28:38;0.75;;;0.50;;
52202;SDS011;38173;52.850;6.970;2024-03-07T10:31:04;1.13;;;0.52;;
52202;SDS011;38173;52.850;6.970;2024-03-07T10:33:36;2.47;;;0.75;;
52202;SDS011;38173;52.850;6.970;2024-03-07T10:36:02;0.77;;;0.40;;
52202;SDS011;38173;52.850;6.970;2024-03-07T10:38:28;3.25;;;1.08;;
52202;SDS011;38173;52.850;6.970;2024-03-07T10:40:55;1.70;;;0.85;;
52202;SDS011;38173;52.850;6.970;2024-03-07T10:43:21;1.92;;;0.80;;
52202;SDS011;38173;52.850;6.970;2024-03-07T10:45:47;1.05;;;0.57;;
52202;SDS011;38173;52.850;6.970;2024-03-07T10:48:17;1.23;;;0.77;;
52202;SDS011;38173;52.850;6.970;2024-03-07T10:53:57;1.42;;;0.88;;
52202;SDS011;38173;52.850;6.970;2024-03-07T11:04:29;2.15;;;0.80;;
52202;SDS011;38173;52.850;6.970;2024-03-07T11:06:56;1.45;;;0.60;;
52202;SDS011;38173;52.850;6.970;2024-03-07T11:09:24;2.13;;;0.75;;
52202;SDS011;38173;52.850;6.970;2024-03-07T11:11:54;1.08;;;0.70;;
52202;SDS011;38173;52.850;6.970;2024-03-07T11:14:22;0.98;;;0.47;;
52202;SDS011;38173;52.850;6.970;2024-03-07T11:16:48;1.35;;;0.60;;
52202;SDS011;38173;52.850;6.970;2024-03-07T11:19:26;1.27;;;0.63;;
52202;SDS011;38173;52.850;6.970;2024-03-07T11:21:54;1.75;;;0.55;;
52202;SDS011;38173;52.850;6.970;2024-03-07T11:24:27;2.33;;;0.70;;
52202;SDS011;38173;52.850;6.970;2024-03-07T11:26:55;1.73;;;0.68;;
52202;SDS011;38173;52.850;6.970;2024-03-07T11:32:19;1.63;;;0.50;;
52202;SDS011;38173;52.850;6.970;2024-03-07T11:34:48;0.80;;;0.50;;
52202;SDS011;38173;52.850;6.970;2024-03-07T11:40:09;1.58;;;0.43;;
52202;SDS011;38173;52.850;6.970;2024-03-07T11:42:49;1.27;;;0.60;;
52202;SDS011;38173;52.850;6.970;2024-03-07T11:45:19;1.85;;;0.70;;
52202;SDS011;38173;52.850;6.970;2024-03-07T11:47:52;0.70;;;0.40;;
52202;SDS011;38173;52.850;6.970;2024-03-07T11:50:29;1.90;;;0.73;;
52202;SDS011;38173;52.850;6.970;2024-03-07T11:53:00;2.08;;;0.90;;
52202;SDS011;38173;52.850;6.970;2024-03-07T11:55:27;1.67;;;0.60;;
52202;SDS011;38173;52.850;6.970;2024-03-07T11:58:07;0.50;;;0.32;;
52202;SDS011;38173;52.850;6.970;2024-03-07T12:00:39;2.28;;;1.00;;
52202;SDS011;38173;52.850;6.970;2024-03-07T12:03:11;2.67;;;1.27;;
52202;SDS011;38173;52.850;6.970;2024-03-07T12:08:07;4.30;;;1.65;;
52202;SDS011;38173;52.850;6.970;2024-03-07T12:10:34;3.67;;;1.23;;
52202;SDS011;38173;52.850;6.970;2024-03-07T12:13:01;2.55;;;1.08;;
52202;SDS011;38173;52.850;6.970;2024-03-07T12:15:28;3.22;;;1.20;;
52202;SDS011;38173;52.850;6.970;2024-03-07T12:17:56;3.65;;;1.50;;
52202;SDS011;38173;52.850;6.970;2024-03-07T12:20:22;3.53;;;1.33;;
52202;SDS011;38173;52.850;6.970;2024-03-07T12:23:01;2.67;;;1.05;;
52202;SDS011;38173;52.850;6.970;2024-03-07T12:25:27;1.17;;;0.63;;
52202;SDS011;38173;52.850;6.970;2024-03-07T12:30:28;3.20;;;1.20;;
52202;SDS011;38173;52.850;6.970;2024-03-07T12:32:58;0.80;;;0.50;;
52202;SDS011;38173;52.850;6.970;2024-03-07T12:35:25;2.72;;;1.15;;
52202;SDS011;38173;52.850;6.970;2024-03-07T12:37:52;3.30;;;1.00;;
52202;SDS011;38173;52.850;6.970;2024-03-07T12:40:19;2.33;;;0.68;;
52202;SDS011;38173;52.850;6.970;2024-03-07T12:42:48;2.95;;;1.13;;
52202;SDS011;38173;52.850;6.970;2024-03-07T12:45:19;2.90;;;1.20;;
52202;SDS011;38173;52.850;6.970;2024-03-07T12:47:48;1.95;;;0.70;;
52202;SDS011;38173;52.850;6.970;2024-03-07T12:50:18;1.50;;;0.52;;
52202;SDS011;38173;52.850;6.970;2024-03-07T12:52:47;2.70;;;0.70;;
52202;SDS011;38173;52.850;6.970;2024-03-07T12:55:16;5.00;;;1.30;;
52202;SDS011;38173;52.850;6.970;2024-03-07T12:57:47;3.53;;;0.82;;
52202;SDS011;38173;52.850;6.970;2024-03-07T13:00:15;2.28;;;0.95;;
52202;SDS011;38173;52.850;6.970;2024-03-07T13:02:46;5.25;;;1.35;;
52202;SDS011;38173;52.850;6.970;2024-03-07T13:05:12;2.75;;;1.35;;
52202;SDS011;38173;52.850;6.970;2024-03-07T13:07:47;3.13;;;1.30;;
52202;SDS011;38173;52.850;6.970;2024-03-07T13:10:14;4.03;;;1.13;;
52202;SDS011;38173;52.850;6.970;2024-03-07T13:12:41;1.80;;;0.85;;
52202;SDS011;38173;52.850;6.970;2024-03-07T13:15:10;1.33;;;0.73;;
52202;SDS011;38173;52.850;6.970;2024-03-07T13:17:38;3.50;;;1.23;;
52202;SDS011;38173;52.850;6.970;2024-03-07T13:20:05;3.70;;;1.17;;
52202;SDS011;38173;52.850;6.970;2024-03-07T13:22:37;2.00;;;1.10;;
52202;SDS011;38173;52.850;6.970;2024-03-07T13:25:12;2.65;;;1.27;;
52202;SDS011;38173;52.850;6.970;2024-03-07T13:27:52;4.85;;;1.63;;
52202;SDS011;38173;52.850;6.970;2024-03-07T13:30:23;1.80;;;0.93;;
52202;SDS011;38173;52.850;6.970;2024-03-07T13:32:52;3.88;;;1.27;;
52202;SDS011;38173;52.850;6.970;2024-03-07T13:35:25;4.18;;;1.42;;
52202;SDS011;38173;52.850;6.970;2024-03-07T13:37:51;2.13;;;0.70;;
52202;SDS011;38173;52.850;6.970;2024-03-07T13:40:25;3.55;;;1.25;;
52202;SDS011;38173;52.850;6.970;2024-03-07T13:42:58;5.40;;;1.67;;
52202;SDS011;38173;52.850;6.970;2024-03-07T13:45:28;4.78;;;1.55;;
52202;SDS011;38173;52.850;6.970;2024-03-07T13:47:56;3.97;;;1.52;;
52202;SDS011;38173;52.850;6.970;2024-03-07T13:50:25;2.30;;;1.10;;
52202;SDS011;38173;52.850;6.970;2024-03-07T13:52:53;2.60;;;1.10;;
52202;SDS011;38173;52.850;6.970;2024-03-07T14:23:38;2.20;;;1.00;;
52202;SDS011;38173;52.850;6.970;2024-03-07T14:26:37;3.72;;;1.35;;
52202;SDS011;38173;52.850;6.970;2024-03-07T14:29:27;4.65;;;1.60;;
52202;SDS011;38173;52.850;6.970;2024-03-07T14:32:05;3.45;;;1.10;;
52202;SDS011;38173;52.850;6.970;2024-03-07T14:34:57;1.55;;;0.77;;
52202;SDS011;38173;52.850;6.970;2024-03-07T14:40:39;4.55;;;1.77;;
52202;SDS011;38173;52.850;6.970;2024-03-07T14:43:05;2.35;;;1.05;;
52202;SDS011;38173;52.850;6.970;2024-03-07T14:45:36;1.33;;;0.73;;
52202;SDS011;38173;52.850;6.970;2024-03-07T14:48:04;2.60;;;1.23;;
52202;SDS011;38173;52.850;6.970;2024-03-07T14:50:33;5.88;;;2.03;;
52202;SDS011;38173;52.850;6.970;2024-03-07T14:52:59;3.83;;;1.50;;
52202;SDS011;38173;52.850;6.970;2024-03-07T14:55:25;3.20;;;1.52;;
52202;SDS011;38173;52.850;6.970;2024-03-07T14:57:51;2.83;;;1.48;;
52202;SDS011;38173;52.850;6.970;2024-03-07T15:00:16;0.95;;;0.75;;
52202;SDS011;38173;52.850;6.970;2024-03-07T15:02:47;3.65;;;1.40;;
52202;SDS011;38173;52.850;6.970;2024-03-07T15:05:15;1.70;;;0.82;;
52202;SDS011;38173;52.850;6.970;2024-03-07T15:07:42;3.72;;;1.63;;
52202;SDS011;38173;52.850;6.970;2024-03-07T15:10:33;2.33;;;0.90;;
52202;SDS011;38173;52.850;6.970;2024-03-07T15:12:59;3.10;;;1.30;;
52202;SDS011;38173;52.850;6.970;2024-03-07T15:15:25;3.33;;;1.05;;
52202;SDS011;38173;52.850;6.970;2024-03-07T15:17:53;2.90;;;1.02;;
52202;SDS011;38173;52.850;6.970;2024-03-07T15:20:19;2.47;;;1.08;;
52202;SDS011;38173;52.850;6.970;2024-03-07T15:22:51;2.78;;;1.05;;
52202;SDS011;38173;52.850;6.970;2024-03-07T15:25:18;2.15;;;1.10;;
52202;SDS011;38173;52.850;6.970;2024-03-07T15:27:44;2.90;;;1.25;;
52202;SDS011;38173;52.850;6.970;2024-03-07T15:30:18;3.83;;;1.77;;
52202;SDS011;38173;52.850;6.970;2024-03-07T15:32:44;3.85;;;1.60;;
52202;SDS011;38173;52.850;6.970;2024-03-07T15:35:12;4.95;;;1.65;;
52202;SDS011;38173;52.850;6.970;2024-03-07T15:37:49;7.60;;;1.77;;
52202;SDS011;38173;52.850;6.970;2024-03-07T15:40:19;4.53;;;1.63;;
52202;SDS011;38173;52.850;6.970;2024-03-07T15:42:46;3.53;;;1.05;;
52202;SDS011;38173;52.850;6.970;2024-03-07T15:45:18;5.55;;;2.40;;
52202;SDS011;38173;52.850;6.970;2024-03-07T15:50:10;4.55;;;1.60;;
52202;SDS011;38173;52.850;6.970;2024-03-07T15:52:42;3.42;;;1.48;;
52202;SDS011;38173;52.850;6.970;2024-03-07T15:55:08;4.18;;;1.75;;
52202;SDS011;38173;52.850;6.970;2024-03-07T15:57:41;4.80;;;1.38;;
52202;SDS011;38173;52.850;6.970;2024-03-07T16:00:20;3.55;;;1.10;;